Time;durP1;ratioP1;P1;durP2;ratioP2;P2;SDS_P1;SDS_P2;PMS_P1;PMS_P2;Temp;Humidity;BMP_temperature;BMP_pressure;BME280_temperature;BME280_humidity;BME280_pressure;Samples;Min_cycle;Max_cycle;Signal;HPM_P1;HPM_P2
2023/03/31 06:34:33;;;;;;;7.20;5.80;;;;;;;7.61;94.64;94969.30;104592;1302;556423;-63
2023/03/31 06:37:01;;;;;;;8.00;5.90;;;;;;;7.71;94.34;94970.02;105869;1286;150994;-63
2023/03/31 06:39:30;;;;;;;9.40;5.40;;;;;;;7.72;94.37;94975.45;106361;1286;24265;-63
2023/03/31 06:41:58;;;;;;;9.60;6.80;;;;;;;7.68;94.76;94972.88;106174;1278;25236;-64
2023/03/31 06:44:27;;;;;;;12.30;5.90;;;;;;;7.65;95.05;94975.91;107101;1278;25483;-64
2023/03/31 06:46:56;;;;;;;23.20;14.00;;;;;;;7.58;95.73;94976.02;106178;1278;22813;-65
2023/03/31 06:49:24;;;;;;;67.30;50.40;;;;;;;7.57;95.64;94971.30;107774;1278;23245;-65
2023/03/31 06:51:52;;;;;;;31.10;27.20;;;;;;;7.60;95.33;94976.70;106836;1278;25396;-63
2023/03/31 06:54:20;;;;;;;16.40;13.00;;;;;;;7.64;95.33;94976.29;106195;1278;22769;-63
2023/03/31 06:56:48;;;;;;;9.50;7.90;;;;;;;7.67;95.34;94978.14;106535;1278;22533;-63
2023/03/31 06:59:16;;;;;;;12.10;8.90;;;;;;;7.70;95.11;94974.25;106198;1278;22671;-61
2023/03/31 07:01:47;;;;;;;10.10;7.90;;;;;;;7.71;95.54;94973.17;106255;1278;23018;-63
2023/03/31 07:04:16;;;;;;;11.10;8.00;;;;;;;7.75;95.34;94974.69;108957;1278;22521;-64
2023/03/31 07:06:44;;;;;;;11.10;7.70;;;;;;;7.77;95.19;94983.92;106264;1278;23858;-65
2023/03/31 07:09:12;;;;;;;10.60;8.00;;;;;;;7.78;94.81;94982.33;106006;1272;22526;-69
2023/03/31 07:11:40;;;;;;;9.80;7.40;;;;;;;7.77;94.80;94987.23;105997;1279;22547;-65
2023/03/31 07:14:09;;;;;;;12.20;9.90;;;;;;;7.84;94.86;94982.92;106281;1273;22721;-67
2023/03/31 07:16:37;;;;;;;8.40;6.40;;;;;;;7.91;94.76;94984.20;106156;1278;22990;-66
2023/03/31 07:19:09;;;;;;;11.30;7.60;;;;;;;7.97;94.01;94984.09;106197;1272;22526;-66
2023/03/31 07:21:38;;;;;;;11.30;8.10;;;;;;;8.03;94.02;94982.06;106230;1273;22534;-64
2023/03/31 07:24:06;;;;;;;13.40;10.50;;;;;;;8.08;93.62;94988.45;106120;1280;22534;-65
2023/03/31 07:26:35;;;;;;;11.30;7.50;;;;;;;8.11;93.13;94985.93;108397;1280;22523;-64
2023/03/31 07:29:03;;;;;;;12.00;9.40;;;;;;;8.14;93.25;94985.52;106529;1280;22527;-64
2023/03/31 07:31:31;;;;;;;9.60;7.90;;;;;;;8.22;93.22;94977.67;106091;1277;26643;-65
2023/03/31 07:34:03;;;;;;;11.20;8.80;;;;;;;8.26;93.04;94977.08;106472;1278;25116;-63
2023/03/31 07:36:31;;;;;;;9.80;7.80;;;;;;;8.33;92.89;94979.38;106288;1275;22520;-62
2023/03/31 07:39:00;;;;;;;6.70;5.80;;;;;;;8.38;92.39;94986.30;106227;1279;25362;-63
2023/03/31 07:41:28;;;;;;;10.00;6.80;;;;;;;8.40;92.34;94986.62;106148;1257;24598;-66
2023/03/31 07:43:56;;;;;;;6.40;5.60;;;;;;;8.44;92.30;94991.63;106129;1280;22561;-64
2023/03/31 07:46:27;;;;;;;10.50;6.50;;;;;;;8.42;91.25;94991.86;106143;1279;22536;-64
2023/03/31 07:48:57;;;;;;;7.70;6.30;;;;;;;8.37;91.34;94999.64;106424;1271;22539;-62
2023/03/31 07:51:26;;;;;;;8.80;7.80;;;;;;;8.37;91.58;94995.61;106409;1261;24370;-64
2023/03/31 07:53:54;;;;;;;9.70;7.80;;;;;;;8.35;91.32;95002.48;106475;1280;24220;-64
2023/03/31 07:56:24;;;;;;;14.90;11.10;;;;;;;8.37;91.64;95007.52;106143;1276;22531;-65
2023/03/31 07:58:52;;;;;;;12.90;7.00;;;;;;;8.39;91.60;95009.08;106206;1280;25457;-65
2023/03/31 08:01:27;;;;;;;8.30;6.20;;;;;;;8.36;90.77;95008.06;106130;1280;24298;-64
2023/03/31 08:03:56;;;;;;;8.10;6.30;;;;;;;8.31;90.57;95005.19;106196;1280;25424;-65
2023/03/31 08:06:25;;;;;;;8.90;6.70;;;;;;;8.23;91.02;95005.52;106186;1280;23091;-62
2023/03/31 08:08:53;;;;;;;9.80;8.30;;;;;;;8.17;91.29;95003.34;106400;1280;24329;-64
2023/03/31 08:11:23;;;;;;;9.00;6.60;;;;;;;8.18;91.43;95010.33;106230;1280;22658;-65
2023/03/31 08:13:51;;;;;;;9.90;5.80;;;;;;;8.14;91.24;95013.55;106310;1280;22524;-65
2023/03/31 08:16:20;;;;;;;9.30;7.40;;;;;;;8.09;91.31;95008.92;106382;1272;22793;-66
2023/03/31 08:18:48;;;;;;;8.70;6.60;;;;;;;8.10;91.20;95013.80;106269;1279;22588;-66
2023/03/31 08:21:16;;;;;;;9.40;8.20;;;;;;;8.09;91.23;95013.66;106472;1274;24401;-66
2023/03/31 08:23:44;;;;;;;9.80;7.30;;;;;;;8.09;91.21;95013.12;106228;1279;23073;-65
2023/03/31 08:26:18;;;;;;;9.30;6.90;;;;;;;8.06;91.15;95010.02;106584;1278;22635;-68
2023/03/31 08:28:48;;;;;;;8.60;7.00;;;;;;;8.01;90.89;95009.25;106412;1279;25412;-65
2023/03/31 08:31:18;;;;;;;8.90;7.80;;;;;;;8.01;91.34;95012.23;106143;1279;22594;-65
2023/03/31 08:33:47;;;;;;;10.50;8.40;;;;;;;8.07;91.64;95012.63;106231;1275;22529;-64
2023/03/31 08:36:15;;;;;;;6.80;5.30;;;;;;;8.15;91.70;95017.39;106254;1272;24241;-65
2023/03/31 08:38:45;;;;;;;9.20;6.80;;;;;;;8.14;90.07;95016.88;106570;1272;22525;-65
2023/03/31 08:41:36;;;;;;;9.40;6.20;;;;;;;8.14;89.43;95019.87;106451;1279;22556;-65
2023/03/31 08:44:13;;;;;;;11.10;7.20;;;;;;;8.17;89.48;95020.32;106324;1272;22643;-65
2023/03/31 08:46:42;;;;;;;9.30;7.30;;;;;;;8.26;89.52;95014.92;106200;1279;26760;-65
2023/03/31 08:49:15;;;;;;;6.70;5.80;;;;;;;8.30;88.44;95020.98;106416;1279;25623;-65
2023/03/31 08:51:50;;;;;;;6.10;4.80;;;;;;;8.38;87.40;95015.39;106365;1279;22576;-63
2023/03/31 08:54:24;;;;;;;8.60;5.40;;;;;;;8.45;86.31;95005.63;106287;1277;26650;-69
2023/03/31 08:56:53;;;;;;;8.20;5.70;;;;;;;8.51;85.31;95007.63;106254;1280;23551;-63
2023/03/31 08:59:26;;;;;;;8.00;5.80;;;;;;;8.57;84.90;95004.02;106189;1277;22524;-62
2023/03/31 09:02:12;;;;;;;6.80;5.40;;;;;;;8.70;84.99;95002.85;106152;1280;24048;-62
2023/03/31 09:04:43;;;;;;;7.00;4.70;;;;;;;8.83;82.90;94998.04;106103;1278;22534;-63
2023/03/31 09:07:21;;;;;;;6.20;4.70;;;;;;;8.94;83.17;94995.15;106194;1280;25484;-63
2023/03/31 09:10:09;;;;;;;12.40;7.90;;;;;;;9.05;82.33;94990.16;106237;1280;24489;-62
2023/03/31 09:12:56;;;;;;;6.30;5.10;;;;;;;9.14;81.40;94995.77;106572;1276;24226;-63
2023/03/31 09:15:46;;;;;;;7.20;6.00;;;;;;;9.18;80.46;94989.19;106541;1276;22534;-63
2023/03/31 09:18:23;;;;;;;7.50;5.80;;;;;;;9.25;80.31;94994.98;106606;1270;22649;-66
2023/03/31 09:21:00;;;;;;;15.50;9.00;;;;;;;9.29;78.88;94993.47;106419;1263;22702;-64
2023/03/31 09:23:45;;;;;;;6.60;5.80;;;;;;;9.32;78.33;94990.78;107221;1273;22640;-64
2023/03/31 09:26:25;;;;;;;9.00;6.60;;;;;;;9.37;78.68;94984.00;106515;1275;24057;-64
2023/03/31 09:28:56;;;;;;;19.60;11.90;;;;;;;9.41;77.68;94980.56;106832;1275;25406;-64
2023/03/31 09:31:25;;;;;;;5.40;3.90;;;;;;;9.50;77.12;94979.31;106822;1275;22589;-63
2023/03/31 09:34:00;;;;;;;5.00;3.70;;;;;;;9.76;76.52;94980.23;106458;1276;24259;-64
2023/03/31 09:36:28;;;;;;;5.80;3.50;;;;;;;10.01;75.77;94976.09;106686;1276;25015;-63
2023/03/31 09:38:56;;;;;;;6.50;3.70;;;;;;;10.24;74.79;94973.20;106590;1276;23000;-63
2023/03/31 09:41:25;;;;;;;4.30;3.90;;;;;;;10.39;73.95;94967.17;106571;1276;24215;-62
2023/03/31 09:43:53;;;;;;;6.40;3.70;;;;;;;10.48;73.54;94962.88;106512;1276;24503;-63
2023/03/31 09:46:27;;;;;;;3.90;3.40;;;;;;;10.56;73.08;94953.51;106526;1276;22537;-63
2023/03/31 09:49:09;;;;;;;6.30;4.10;;;;;;;10.56;71.61;94951.39;106628;1276;23921;-64
2023/03/31 09:51:44;;;;;;;5.10;3.30;;;;;;;10.56;72.71;94942.23;106644;1276;24264;-64
